createdAt,value
2016-07-19T00:00:02.753Z,21.03
2016-07-19T00:01:02.737Z,20.97
2016-07-19T00:02:02.715Z,20.97
2016-07-19T00:03:02.698Z,20.95
2016-07-19T00:04:02.684Z,20.92
2016-07-19T00:05:02.664Z,20.92
2016-07-19T00:06:02.643Z,20.96
2016-07-19T00:07:02.628Z,20.85
2016-07-19T00:08:02.608Z,20.92
2016-07-19T00:09:02.593Z,20.87
2016-07-19T00:10:02.575Z,20.87
2016-07-19T00:11:02.558Z,20.9
2016-07-19T00:12:02.540Z,20.87
2016-07-19T00:13:02.519Z,20.88
2016-07-19T00:14:02.503Z,20.92
2016-07-19T00:15:02.486Z,20.85
2016-07-19T00:16:02.471Z,20.8
2016-07-19T00:17:02.451Z,20.74
2016-07-19T00:18:02.433Z,20.82
2016-07-19T00:19:02.415Z,20.72
2016-07-19T00:20:02.400Z,20.81
2016-07-19T00:21:02.381Z,20.7
2016-07-19T00:22:02.365Z,20.72
2016-07-19T00:23:02.343Z,20.72
2016-07-19T00:24:02.323Z,20.77
2016-07-19T00:25:02.306Z,20.65
2016-07-19T00:26:02.293Z,20.67
2016-07-19T00:27:02.271Z,20.63
2016-07-19T00:28:02.252Z,20.62
2016-07-19T00:29:02.233Z,20.6
2016-07-19T00:30:02.218Z,20.65
2016-07-19T00:31:02.197Z,20.63
2016-07-19T00:32:02.183Z,20.6
2016-07-19T00:33:02.168Z,20.56
2016-07-19T00:34:02.146Z,20.58
2016-07-19T00:35:02.128Z,20.52
2016-07-19T00:36:02.121Z,20.56
2016-07-19T00:37:02.091Z,20.58
2016-07-19T00:38:02.077Z,20.56
2016-07-19T00:39:02.055Z,20.5
2016-07-19T00:40:02.040Z,20.43
2016-07-19T00:41:02.027Z,20.4
2016-07-19T00:42:02.010Z,20.43
2016-07-19T00:43:01.988Z,20.43
2016-07-19T00:44:01.966Z,20.47
2016-07-19T00:45:01.951Z,20.39
2016-07-19T00:46:01.929Z,20.4
2016-07-19T00:47:01.913Z,20.4
2016-07-19T00:48:01.897Z,20.31
2016-07-19T00:49:01.878Z,20.29
2016-07-19T00:50:01.865Z,20.34
2016-07-19T00:51:01.839Z,20.29
2016-07-19T00:52:01.824Z,20.29
2016-07-19T00:53:01.803Z,20.32
2016-07-19T00:54:01.787Z,20.29
2016-07-19T00:55:01.769Z,20.22
2016-07-19T00:56:01.753Z,20.22
2016-07-19T00:57:01.733Z,20.24
2016-07-19T00:58:01.712Z,20.16
2016-07-19T00:59:01.700Z,20.16
2016-07-19T01:00:01.678Z,20.21
2016-07-19T01:01:01.658Z,20.22
2016-07-19T01:02:01.641Z,20.13
2016-07-19T01:03:01.623Z,20.18
2016-07-19T01:04:01.611Z,20.13
2016-07-19T01:05:01.589Z,20.04
2016-07-19T01:06:01.571Z,20.11
2016-07-19T01:07:01.547Z,20.09
2016-07-19T01:08:01.530Z,20.04
2016-07-19T01:09:01.509Z,20.07
2016-07-19T01:10:01.494Z,20.07
2016-07-19T01:11:01.472Z,20.03
2016-07-19T01:12:01.457Z,20.02
2016-07-19T01:13:01.436Z,20.03
2016-07-19T01:14:01.420Z,20
2016-07-19T01:15:01.399Z,19.99
2016-07-19T01:16:01.399Z,19.94
2016-07-19T01:17:01.364Z,20.02
2016-07-19T01:18:01.344Z,19.96
2016-07-19T01:19:01.328Z,19.94
2016-07-19T01:20:01.307Z,19.95
2016-07-19T01:21:01.292Z,19.99
2016-07-19T01:22:01.272Z,19.89
2016-07-19T01:23:01.261Z,19.86
2016-07-19T01:24:01.232Z,19.91
2016-07-19T01:25:01.216Z,19.91
2016-07-19T01:26:01.198Z,19.85
2016-07-19T01:27:01.180Z,19.82
2016-07-19T01:28:01.163Z,19.81
2016-07-19T01:29:01.142Z,19.82
2016-07-19T01:30:01.125Z,19.89
2016-07-19T01:31:01.796Z,19.76
2016-07-19T01:32:01.089Z,19.77
2016-07-19T01:33:01.070Z,19.76
2016-07-19T01:34:01.061Z,19.73
2016-07-19T01:35:01.032Z,19.79
2016-07-19T01:36:01.015Z,19.74
2016-07-19T01:37:00.994Z,19.7
2016-07-19T01:38:00.976Z,19.69
2016-07-19T01:39:00.957Z,19.64
2016-07-19T01:40:00.938Z,19.7
2016-07-19T01:41:00.920Z,19.64
2016-07-19T01:42:00.902Z,19.66
2016-07-19T01:43:00.888Z,19.63
2016-07-19T01:44:00.862Z,19.64
2016-07-19T01:45:00.858Z,19.63
2016-07-19T01:46:00.831Z,19.59
2016-07-19T01:47:00.813Z,19.55
2016-07-19T01:48:00.784Z,19.51
2016-07-19T01:49:00.775Z,19.54
2016-07-19T01:50:00.749Z,19.48
2016-07-19T01:51:00.739Z,19.52
2016-07-19T01:52:00.711Z,19.48
2016-07-19T01:53:00.692Z,19.47
2016-07-19T01:54:00.687Z,19.45
2016-07-19T01:55:00.655Z,19.49
2016-07-19T01:56:00.639Z,19.49
2016-07-19T01:57:00.617Z,19.39
2016-07-19T01:58:00.601Z,19.47
2016-07-19T01:59:00.578Z,19.51
2016-07-19T02:00:00.562Z,19.44
2016-07-19T02:01:00.543Z,19.33
2016-07-19T02:02:00.529Z,19.44
2016-07-19T02:03:00.506Z,19.41
2016-07-19T02:04:00.483Z,19.4
2016-07-19T02:05:00.473Z,19.41
2016-07-19T02:06:00.448Z,19.33
2016-07-19T02:07:00.430Z,19.33
2016-07-19T02:08:00.409Z,19.34
2016-07-19T02:09:00.392Z,19.29
2016-07-19T02:10:00.374Z,19.3
2016-07-19T02:11:00.352Z,19.3
2016-07-19T02:12:00.338Z,19.29
2016-07-19T02:13:01.007Z,19.29
2016-07-19T02:14:00.298Z,19.24
2016-07-19T02:15:00.276Z,19.19
2016-07-19T02:16:00.260Z,19.19
2016-07-19T02:17:00.239Z,19.18
2016-07-19T02:18:00.221Z,19.19
2016-07-19T02:19:00.200Z,19.09
2016-07-19T02:20:00.183Z,19.11
2016-07-19T02:21:00.162Z,19.12
2016-07-19T02:22:00.153Z,19.11
2016-07-19T02:23:00.125Z,19.02
2016-07-19T02:24:00.104Z,19.07
2016-07-19T02:25:00.088Z,19.11
2016-07-19T02:26:00.065Z,18.96
2016-07-19T02:27:00.049Z,19
2016-07-19T02:28:00.030Z,18.99
2016-07-19T02:29:00.008Z,18.99
2016-07-19T02:29:59.993Z,19.02
2016-07-19T02:30:59.970Z,18.98
2016-07-19T02:31:59.949Z,18.99
2016-07-19T02:32:59.931Z,18.98
2016-07-19T02:33:59.911Z,18.96
2016-07-19T02:34:59.902Z,18.98
2016-07-19T02:35:59.875Z,18.9
2016-07-19T02:36:59.854Z,18.88
2016-07-19T02:37:59.835Z,18.86
2016-07-19T02:38:59.816Z,18.88
2016-07-19T02:39:59.797Z,18.84
2016-07-19T02:40:59.776Z,18.81
2016-07-19T02:41:59.757Z,18.83
2016-07-19T02:42:59.736Z,18.83
2016-07-19T02:43:59.720Z,18.83
2016-07-19T02:44:59.700Z,18.81
2016-07-19T02:45:59.680Z,18.84
2016-07-19T02:46:59.661Z,18.77
2016-07-19T02:47:59.644Z,18.8
2016-07-19T02:48:59.624Z,18.73
2016-07-19T02:49:59.604Z,18.74
2016-07-19T02:50:59.592Z,18.73
2016-07-19T02:51:59.565Z,18.78
2016-07-19T02:52:59.548Z,18.74
2016-07-19T02:53:59.530Z,18.74
2016-07-19T02:54:59.507Z,18.75
2016-07-19T02:55:59.490Z,18.73
2016-07-19T02:56:59.467Z,18.7
2016-07-19T02:57:59.444Z,18.62
2016-07-19T02:58:59.440Z,18.63
2016-07-19T02:59:59.410Z,18.62
2016-07-19T03:00:59.390Z,18.6
2016-07-19T03:01:59.371Z,18.7
2016-07-19T03:02:59.349Z,18.66
2016-07-19T03:03:59.330Z,18.68
2016-07-19T03:04:59.310Z,18.66
2016-07-19T03:05:59.293Z,18.63
2016-07-19T03:06:59.272Z,18.58
2016-07-19T03:07:59.254Z,18.58
2016-07-19T03:08:59.234Z,18.58
2016-07-19T03:09:59.218Z,18.56
2016-07-19T03:10:59.250Z,18.62
2016-07-19T03:11:59.176Z,18.58
2016-07-19T03:12:59.157Z,18.68
2016-07-19T03:13:59.135Z,18.52
2016-07-19T03:14:59.115Z,18.45
2016-07-19T03:15:59.093Z,18.65
2016-07-19T03:16:59.077Z,18.47
2016-07-19T03:17:59.055Z,18.53
2016-07-19T03:18:59.038Z,18.6
2016-07-19T03:19:59.015Z,18.45
2016-07-19T03:20:58.999Z,18.55
2016-07-19T03:21:58.977Z,18.53
2016-07-19T03:22:58.959Z,18.47
2016-07-19T03:23:58.938Z,18.56
2016-07-19T03:24:58.921Z,18.53
2016-07-19T03:25:58.910Z,18.45
2016-07-19T03:26:58.878Z,18.47
2016-07-19T03:27:58.861Z,18.55
2016-07-19T03:28:58.844Z,18.49
2016-07-19T03:29:58.823Z,18.45
2016-07-19T03:30:58.801Z,18.49
2016-07-19T03:31:58.782Z,18.44
2016-07-19T03:32:58.763Z,18.45
2016-07-19T03:33:58.745Z,18.44
2016-07-19T03:34:58.723Z,18.5
2016-07-19T03:35:58.703Z,18.5
2016-07-19T03:36:58.683Z,18.45
2016-07-19T03:37:58.661Z,18.49
2016-07-19T03:38:58.648Z,18.49
2016-07-19T03:39:58.622Z,18.45
2016-07-19T03:40:58.605Z,18.52
2016-07-19T03:41:58.584Z,18.49
2016-07-19T03:42:59.256Z,18.43
2016-07-19T03:43:58.547Z,18.47
2016-07-19T03:44:58.523Z,18.44
2016-07-19T03:45:58.507Z,18.43
2016-07-19T03:46:58.484Z,18.44
2016-07-19T03:47:58.468Z,18.47
2016-07-19T03:48:58.446Z,18.5
2016-07-19T03:49:58.426Z,18.45
2016-07-19T03:50:58.406Z,18.45
2016-07-19T03:51:58.386Z,18.47
2016-07-19T03:52:58.374Z,18.45
2016-07-19T03:53:58.347Z,18.43
2016-07-19T03:54:58.327Z,18.55
2016-07-19T03:55:58.308Z,18.52
2016-07-19T03:56:58.287Z,18.41
2016-07-19T03:57:58.270Z,18.43
2016-07-19T03:58:58.255Z,18.49
2016-07-19T03:59:58.231Z,18.43
2016-07-19T04:00:58.219Z,18.44
2016-07-19T04:01:58.192Z,18.49
2016-07-19T04:02:58.174Z,18.47
2016-07-19T04:03:58.153Z,18.45
2016-07-19T04:04:58.133Z,18.45
2016-07-19T04:05:58.111Z,18.45
2016-07-19T04:06:58.094Z,18.45
2016-07-19T04:07:58.072Z,18.45
2016-07-19T04:08:58.056Z,18.5
2016-07-19T04:09:58.033Z,18.49
2016-07-19T04:10:58.015Z,18.5
2016-07-19T04:11:57.993Z,18.52
2016-07-19T04:12:57.976Z,18.55
2016-07-19T04:13:57.958Z,18.53
2016-07-19T04:14:57.933Z,18.55
2016-07-19T04:15:57.917Z,18.52
2016-07-19T04:16:57.895Z,18.47
2016-07-19T04:17:57.876Z,18.63
2016-07-19T04:18:57.858Z,18.65
2016-07-19T04:19:57.839Z,18.53
2016-07-19T04:20:57.818Z,18.59
2016-07-19T04:21:57.800Z,18.59
2016-07-19T04:22:57.778Z,18.59
2016-07-19T04:23:57.761Z,18.56
2016-07-19T04:24:57.740Z,18.56
2016-07-19T04:25:57.723Z,18.65
2016-07-19T04:26:57.701Z,18.58
2016-07-19T04:27:57.684Z,18.53
2016-07-19T04:28:57.663Z,18.5
2016-07-19T04:29:57.644Z,18.58
2016-07-19T04:30:57.625Z,18.62
2016-07-19T04:31:57.604Z,18.68
2016-07-19T04:32:57.586Z,18.7
2016-07-19T04:33:57.564Z,18.65
2016-07-19T04:34:57.547Z,18.56
2016-07-19T04:35:57.534Z,18.7
2016-07-19T04:36:57.507Z,18.66
2016-07-19T04:37:57.491Z,18.58
2016-07-19T04:38:57.468Z,18.7
2016-07-19T04:39:57.451Z,18.65
2016-07-19T04:40:57.430Z,18.63
2016-07-19T04:41:57.415Z,18.7
2016-07-19T04:42:57.394Z,18.62
2016-07-19T04:43:57.376Z,18.74
2016-07-19T04:44:57.354Z,18.73
2016-07-19T04:45:57.337Z,18.71
2016-07-19T04:46:57.368Z,18.63
2016-07-19T04:47:57.299Z,18.74
2016-07-19T04:48:57.302Z,18.74
2016-07-19T04:49:57.262Z,18.73
2016-07-19T04:50:57.242Z,18.75
2016-07-19T04:51:57.219Z,18.75
2016-07-19T04:52:57.203Z,18.86
2016-07-19T04:53:57.182Z,18.78
2016-07-19T04:54:57.164Z,18.88
2016-07-19T04:55:57.143Z,18.83
2016-07-19T04:56:57.126Z,18.96
2016-07-19T04:57:57.104Z,18.89
2016-07-19T04:58:57.091Z,18.86
2016-07-19T04:59:57.089Z,18.9
2016-07-19T05:00:57.076Z,18.99
2016-07-19T05:01:57.032Z,18.98
2016-07-19T05:02:57.010Z,19.02
2016-07-19T05:03:56.995Z,18.96
2016-07-19T05:04:56.972Z,19.04
2016-07-19T05:05:56.955Z,19.07
2016-07-19T05:06:57.664Z,19.12
2016-07-19T05:07:56.918Z,19.11
2016-07-19T05:08:56.895Z,19.08
2016-07-19T05:09:56.883Z,19.21
2016-07-19T05:10:57.034Z,19.24
2016-07-19T05:11:56.842Z,19.18
2016-07-19T05:12:56.820Z,19.24
2016-07-19T05:13:56.804Z,19.29
2016-07-19T05:14:56.783Z,19.31
2016-07-19T05:15:56.771Z,19.29
2016-07-19T05:16:56.796Z,19.39
2016-07-19T05:17:57.421Z,19.4
2016-07-19T05:18:56.708Z,19.34
2016-07-19T05:19:56.689Z,19.44
2016-07-19T05:20:56.679Z,19.48
2016-07-19T05:21:56.652Z,19.48
2016-07-19T05:22:56.637Z,19.49
2016-07-19T05:23:56.618Z,19.64
2016-07-19T05:24:56.599Z,19.69
2016-07-19T05:25:56.581Z,19.73
2016-07-19T05:26:56.563Z,19.73
2016-07-19T05:27:56.544Z,19.82
2016-07-19T05:28:56.526Z,19.85
2016-07-19T05:29:56.508Z,19.88
2016-07-19T05:30:56.489Z,19.95
2016-07-19T05:31:56.471Z,19.92
2016-07-19T05:32:56.453Z,20.03
2016-07-19T05:33:56.623Z,20.13
2016-07-19T05:34:56.417Z,20.18
2016-07-19T05:35:56.401Z,20.28
2016-07-19T05:36:56.387Z,20.41
2016-07-19T05:37:56.366Z,20.39
2016-07-19T05:38:56.347Z,20.48
2016-07-19T05:39:56.332Z,20.55
2016-07-19T05:40:56.310Z,20.55
2016-07-19T05:41:56.295Z,20.7
2016-07-19T05:42:57.014Z,20.74
2016-07-19T05:43:56.262Z,20.81
2016-07-19T05:44:56.241Z,20.9
2016-07-19T05:45:56.229Z,20.99
2016-07-19T05:46:56.207Z,21.2
2016-07-19T05:47:56.194Z,21.33
2016-07-19T05:48:56.177Z,21.43
2016-07-19T05:49:56.157Z,21.55
2016-07-19T05:50:56.144Z,21.76
2016-07-19T05:51:56.126Z,21.82
2016-07-19T05:52:56.110Z,21.88
2016-07-19T05:53:56.092Z,22.06
2016-07-19T05:54:56.079Z,22.18
2016-07-19T05:55:56.066Z,22.25
2016-07-19T05:56:56.086Z,22.38
2016-07-19T05:57:56.036Z,22.41
2016-07-19T05:58:56.013Z,22.54
2016-07-19T05:59:56.001Z,22.68
2016-07-19T06:00:55.983Z,22.8
2016-07-19T06:01:55.971Z,22.88
2016-07-19T06:02:55.953Z,22.91
2016-07-19T06:03:55.937Z,23.02
2016-07-19T06:04:55.934Z,23.18
2016-07-19T06:05:55.908Z,23.15
2016-07-19T06:06:55.895Z,23.34
2016-07-19T06:07:55.882Z,23.41
2016-07-19T06:08:55.866Z,23.47
2016-07-19T06:09:55.851Z,23.61
2016-07-19T06:10:55.835Z,23.54
2016-07-19T06:11:56.515Z,23.62
2016-07-19T06:12:55.806Z,23.61
2016-07-19T06:13:55.796Z,23.8
2016-07-19T06:14:55.976Z,23.87
2016-07-19T06:15:55.767Z,23.87
2016-07-19T06:16:55.753Z,23.96
2016-07-19T06:17:55.982Z,23.99
2016-07-19T06:18:55.749Z,24.11
2016-07-19T06:19:55.738Z,24.17
2016-07-19T06:20:55.699Z,24.17
2016-07-19T06:21:55.686Z,24.23
2016-07-19T06:22:55.732Z,24.38
2016-07-19T06:23:55.660Z,24.4
2016-07-19T06:24:55.744Z,24.47
2016-07-19T06:25:55.632Z,24.54
2016-07-19T06:26:55.628Z,24.63
2016-07-19T06:27:55.643Z,24.69
2016-07-19T06:28:56.335Z,24.86
2016-07-19T06:29:55.620Z,24.92
2016-07-19T06:30:56.145Z,25.06
2016-07-19T06:31:55.564Z,25.22
2016-07-19T06:32:55.598Z,25.28
2016-07-19T06:33:56.982Z,25.31
2016-07-19T06:34:55.723Z,25.4
2016-07-19T06:35:55.547Z,25.53
2016-07-19T06:36:55.850Z,25.5
2016-07-19T06:37:55.953Z,25.62
2016-07-19T06:38:55.486Z,25.7
2016-07-19T06:39:57.467Z,25.85
2016-07-19T06:40:55.827Z,25.93
2016-07-19T06:41:55.480Z,26.05
2016-07-19T06:42:55.479Z,26.05
2016-07-19T06:43:55.430Z,26.16
2016-07-19T06:44:55.424Z,26.29
2016-07-19T06:45:55.411Z,26.33
2016-07-19T06:46:55.404Z,26.48
2016-07-19T06:47:55.395Z,26.66
2016-07-19T06:48:55.429Z,26.73
2016-07-19T06:49:55.374Z,26.75
2016-07-19T06:50:55.548Z,26.89
2016-07-19T06:51:55.379Z,26.92
2016-07-19T06:52:55.346Z,27.08
2016-07-19T06:53:55.339Z,27.1
2016-07-19T06:54:55.388Z,27.27
2016-07-19T06:55:55.352Z,27.36
2016-07-19T06:56:55.312Z,27.51
2016-07-19T06:57:55.319Z,27.58
2016-07-19T06:58:55.301Z,27.77
2016-07-19T06:59:55.577Z,27.68
2016-07-19T07:00:56.377Z,27.8
2016-07-19T07:01:55.543Z,27.87
2016-07-19T07:02:55.602Z,27.96
2016-07-19T07:03:55.300Z,28.11
2016-07-19T07:04:56.949Z,28.08
2016-07-19T07:05:55.374Z,28.22
2016-07-19T07:06:55.324Z,28.38
2016-07-19T07:07:55.378Z,28.37
2016-07-19T07:08:55.347Z,28.42
2016-07-19T07:09:55.436Z,28.6
2016-07-19T07:10:55.931Z,28.57
2016-07-19T07:11:55.202Z,28.72
2016-07-19T07:12:55.328Z,28.75
2016-07-19T07:13:55.398Z,28.93
2016-07-19T07:14:55.606Z,28.89
2016-07-19T07:15:55.915Z,28.94
2016-07-19T07:16:55.916Z,29.02
2016-07-19T07:17:55.203Z,28.97
2016-07-19T07:18:55.988Z,29.2
2016-07-19T07:19:55.200Z,29.27
2016-07-19T07:20:55.523Z,29.41
2016-07-19T07:21:56.058Z,29.51
2016-07-19T07:22:55.971Z,29.59
2016-07-19T07:23:56.010Z,29.65
2016-07-19T07:24:55.702Z,29.76
2016-07-19T07:25:55.444Z,29.93
2016-07-19T07:26:55.834Z,29.88
2016-07-19T07:27:55.622Z,30
2016-07-19T07:28:56.944Z,30.15
2016-07-19T07:29:55.687Z,30.21
2016-07-19T07:30:56.950Z,30.32
2016-07-19T07:31:55.748Z,30.31
2016-07-19T07:32:56.230Z,30.4
2016-07-19T07:33:55.555Z,30.44
2016-07-19T07:34:55.309Z,30.5
2016-07-19T07:35:55.313Z,30.66
2016-07-19T07:36:55.084Z,30.55
2016-07-19T07:37:55.814Z,30.63
2016-07-19T07:38:55.718Z,30.73
2016-07-19T07:39:55.076Z,30.81
2016-07-19T07:40:55.780Z,30.78
2016-07-19T07:41:55.006Z,30.91
2016-07-19T07:42:55.769Z,30.97
2016-07-19T07:43:54.994Z,31.07
2016-07-19T07:44:56.379Z,31.12
2016-07-19T07:45:55.253Z,31.18
2016-07-19T07:46:55.278Z,31.22
2016-07-19T07:47:56.722Z,31.24
2016-07-19T07:48:56.105Z,31.31
2016-07-19T07:49:54.995Z,31.4
2016-07-19T07:50:54.960Z,31.55
2016-07-19T07:51:55.631Z,31.56
2016-07-19T07:52:55.402Z,31.71
2016-07-19T07:53:55.839Z,31.49
2016-07-19T07:54:55.034Z,31.46
2016-07-19T07:55:55.728Z,31.4
2016-07-19T07:56:54.947Z,31.4
2016-07-19T07:57:54.928Z,31.42
2016-07-19T07:58:55.082Z,31.49
2016-07-19T07:59:54.976Z,31.61
2016-07-19T08:00:55.180Z,31.71
2016-07-19T08:01:56.628Z,31.89
2016-07-19T08:02:56.267Z,31.92
2016-07-19T08:03:55.983Z,31.84
2016-07-19T08:04:54.899Z,32.01
2016-07-19T08:05:56.127Z,32.11
2016-07-19T08:06:54.975Z,32.26
2016-07-19T08:07:54.911Z,32.34
2016-07-19T08:08:54.879Z,32.45
2016-07-19T08:09:55.620Z,32.48
2016-07-19T08:10:55.003Z,32.59
2016-07-19T08:11:56.217Z,32.55
2016-07-19T08:12:56.052Z,32.56
2016-07-19T08:13:54.866Z,32.6
2016-07-19T08:14:55.086Z,32.64
2016-07-19T08:15:55.482Z,32.82
2016-07-19T08:16:55.974Z,32.87
2016-07-19T08:17:55.497Z,32.87
2016-07-19T08:18:54.908Z,32.96
2016-07-19T08:19:56.464Z,33.14
2016-07-19T08:20:54.840Z,33.23
2016-07-19T08:21:54.875Z,33.34
2016-07-19T08:22:54.918Z,33.45
2016-07-19T08:23:56.633Z,33.49
2016-07-19T08:24:55.206Z,33.43
2016-07-19T08:25:54.841Z,33.31
2016-07-19T08:26:55.584Z,33.3
2016-07-19T08:27:55.986Z,33.58
2016-07-19T08:28:56.131Z,33.61
2016-07-19T08:29:55.491Z,33.71
2016-07-19T08:30:55.080Z,33.59
2016-07-19T08:31:55.153Z,33.62
2016-07-19T08:32:55.206Z,33.8
2016-07-19T08:33:55.080Z,33.89
2016-07-19T08:34:55.110Z,33.87
2016-07-19T08:35:55.537Z,33.87
2016-07-19T08:36:55.303Z,33.99
2016-07-19T08:37:55.480Z,33.94
2016-07-19T08:38:55.709Z,33.76
2016-07-19T08:39:55.340Z,33.62
2016-07-19T08:40:54.852Z,33.5
2016-07-19T08:41:55.681Z,33.53
2016-07-19T08:42:55.016Z,33.59
2016-07-19T08:43:56.299Z,33.68
2016-07-19T08:44:54.907Z,33.9
2016-07-19T08:45:55.771Z,34.03
2016-07-19T08:46:54.807Z,34.17
2016-07-19T08:47:55.909Z,34.36
2016-07-19T08:48:54.806Z,34.47
2016-07-19T08:49:54.785Z,34.5
2016-07-19T08:50:54.776Z,34.51
2016-07-19T08:51:54.779Z,34.5
2016-07-19T08:52:54.932Z,34.42
2016-07-19T08:53:55.172Z,34.4
2016-07-19T08:54:55.466Z,34.21
2016-07-19T08:55:54.796Z,34.1
2016-07-19T08:56:54.774Z,34.16
2016-07-19T08:57:54.766Z,34.1
2016-07-19T08:58:55.261Z,34.1
2016-07-19T08:59:55.345Z,34.23
2016-07-19T09:00:54.768Z,34.32
2016-07-19T09:01:54.781Z,34.32
2016-07-19T09:02:54.763Z,34.08
2016-07-19T09:03:54.761Z,34.08
2016-07-19T09:04:54.758Z,34.16
2016-07-19T09:05:54.971Z,34.21
2016-07-19T09:06:54.758Z,34.2
2016-07-19T09:07:54.754Z,34.08
2016-07-19T09:08:54.805Z,34.11
2016-07-19T09:09:56.412Z,34.17
2016-07-19T09:10:54.937Z,34.05
2016-07-19T09:11:54.755Z,34.16
2016-07-19T09:12:54.761Z,34.17
2016-07-19T09:13:55.125Z,34.23
2016-07-19T09:14:54.912Z,34.2
2016-07-19T09:15:54.898Z,34.33
2016-07-19T09:16:54.932Z,34.43
2016-07-19T09:17:54.923Z,34.54
2016-07-19T09:18:54.799Z,34.54
2016-07-19T09:19:54.749Z,34.57
2016-07-19T09:20:54.749Z,34.6
2016-07-19T09:21:54.901Z,34.5
2016-07-19T09:22:54.749Z,34.35
2016-07-19T09:23:54.762Z,34.14
2016-07-19T09:24:54.747Z,33.96
2016-07-19T09:25:56.323Z,33.86
2016-07-19T09:26:55.520Z,33.69
2016-07-19T09:27:55.820Z,33.84
2016-07-19T09:28:54.930Z,33.8
2016-07-19T09:29:54.851Z,33.96
2016-07-19T09:30:55.529Z,34.05
2016-07-19T09:31:54.743Z,34.27
2016-07-19T09:32:55.471Z,34.4
2016-07-19T09:33:54.737Z,34.54
2016-07-19T09:34:54.742Z,34.75
2016-07-19T09:35:54.759Z,34.86
2016-07-19T09:36:55.325Z,35.07
2016-07-19T09:37:54.742Z,35.18
2016-07-19T09:38:54.847Z,35.34
2016-07-19T09:39:54.739Z,35.55
2016-07-19T09:40:56.129Z,35.42
2016-07-19T09:41:55.581Z,35.45
2016-07-19T09:42:54.951Z,35.27
2016-07-19T09:43:56.220Z,35.27
2016-07-19T09:44:54.948Z,35.29
2016-07-19T09:45:55.064Z,35.52
2016-07-19T09:46:55.585Z,35.64
2016-07-19T09:47:55.092Z,35.52
2016-07-19T09:48:54.846Z,35.46
2016-07-19T09:49:55.791Z,35.44
2016-07-19T09:50:54.742Z,35.18
2016-07-19T09:51:54.748Z,35.11
2016-07-19T09:52:54.813Z,35.23
2016-07-19T09:53:54.881Z,35.34
2016-07-19T09:54:55.636Z,35.53
2016-07-19T09:55:54.991Z,35.61
2016-07-19T09:56:54.747Z,35.56
2016-07-19T09:57:55.917Z,35.68
2016-07-19T09:58:54.820Z,35.49
2016-07-19T09:59:54.748Z,35.55
2016-07-19T10:00:55.232Z,35.66
2016-07-19T10:01:54.808Z,35.73
2016-07-19T10:02:55.232Z,35.74
2016-07-19T10:03:54.764Z,35.39
2016-07-19T10:04:55.002Z,35.44
2016-07-19T10:05:54.750Z,35.56
2016-07-19T10:06:54.751Z,35.76
2016-07-19T10:07:54.755Z,35.95
2016-07-19T10:08:54.754Z,35.95
2016-07-19T10:09:54.778Z,35.95
2016-07-19T10:10:54.758Z,35.93
2016-07-19T10:11:54.792Z,35.82
2016-07-19T10:12:55.456Z,35.89
2016-07-19T10:13:54.762Z,35.86
2016-07-19T10:14:54.760Z,36.07
2016-07-19T10:15:54.758Z,36.05
2016-07-19T10:16:54.838Z,36.39
2016-07-19T10:17:55.765Z,36.59
2016-07-19T10:18:54.805Z,36.58
2016-07-19T10:19:55.526Z,36.61
2016-07-19T10:20:55.368Z,36.73
2016-07-19T10:21:54.767Z,36.62
2016-07-19T10:22:55.099Z,36.43
2016-07-19T10:23:54.879Z,36.37
2016-07-19T10:24:54.774Z,36.49
2016-07-19T10:25:54.772Z,36.73
2016-07-19T10:26:54.968Z,36.64
2016-07-19T10:27:55.208Z,36.64
2016-07-19T10:28:54.891Z,36.45
2016-07-19T10:29:54.858Z,36.46
2016-07-19T10:30:54.779Z,36.58
2016-07-19T10:31:54.793Z,36.61
2016-07-19T10:32:54.786Z,36.73
2016-07-19T10:33:54.988Z,36.86
2016-07-19T10:34:55.584Z,36.99
2016-07-19T10:35:54.806Z,37.01
2016-07-19T10:36:54.783Z,37.03
2016-07-19T10:37:54.880Z,36.95
2016-07-19T10:38:54.791Z,36.86
2016-07-19T10:39:54.794Z,36.98
2016-07-19T10:40:54.792Z,36.99
2016-07-19T10:41:54.950Z,37.18
2016-07-19T10:42:55.480Z,37.39
2016-07-19T10:43:55.021Z,37.63
2016-07-19T10:44:54.788Z,37.59
2016-07-19T10:45:54.931Z,37.77
2016-07-19T10:46:55.492Z,38.02
2016-07-19T10:47:54.961Z,38.17
2016-07-19T10:48:54.857Z,38.11
2016-07-19T10:49:54.803Z,38.23
2016-07-19T10:50:55.460Z,38.23
2016-07-19T10:51:54.871Z,38.28
2016-07-19T10:52:54.923Z,38.39
2016-07-19T10:53:56.337Z,38.42
2016-07-19T10:54:55.119Z,38.42
2016-07-19T10:55:54.819Z,38.31
2016-07-19T10:56:54.821Z,38.52
2016-07-19T10:57:55.689Z,38.62
2016-07-19T10:58:54.819Z,38.8
2016-07-19T10:59:54.913Z,38.89
2016-07-19T11:00:55.440Z,39.04
2016-07-19T11:01:54.827Z,39.12
2016-07-19T11:02:54.891Z,39.24
2016-07-19T11:03:54.834Z,39.33
2016-07-19T11:04:55.146Z,39.4
2016-07-19T11:05:55.024Z,39.41
2016-07-19T11:06:56.005Z,39.44
2016-07-19T11:07:54.866Z,39.49
2016-07-19T11:08:55.132Z,39.44
2016-07-19T11:09:55.096Z,39.06
2016-07-19T11:10:55.554Z,38.89
2016-07-19T11:11:55.868Z,38.79
2016-07-19T11:12:54.939Z,38.8
2016-07-19T11:13:54.865Z,38.89
2016-07-19T11:14:55.006Z,39.03
2016-07-19T11:15:54.876Z,39.07
2016-07-19T11:16:54.977Z,39.31
2016-07-19T11:17:55.746Z,39.31
2016-07-19T11:18:55.315Z,39.25
2016-07-19T11:19:54.892Z,39.02
2016-07-19T11:20:56.240Z,38.91
2016-07-19T11:21:55.668Z,38.83
2016-07-19T11:22:55.150Z,38.92
2016-07-19T11:23:54.912Z,38.96
2016-07-19T11:24:55.518Z,39.03
2016-07-19T11:25:55.108Z,38.91
2016-07-19T11:26:54.912Z,38.89
2016-07-19T11:27:54.995Z,39.12
2016-07-19T11:28:54.962Z,39.26
2016-07-19T11:29:54.922Z,39.26
2016-07-19T11:30:55.143Z,39.33
2016-07-19T11:31:55.015Z,39.52
2016-07-19T11:32:54.935Z,39.65
2016-07-19T11:33:54.937Z,39.87
2016-07-19T11:34:55.281Z,39.7
2016-07-19T11:35:54.942Z,39.67
2016-07-19T11:36:55.056Z,39.6
2016-07-19T11:37:55.153Z,39.59
2016-07-19T11:38:56.079Z,39.56
2016-07-19T11:39:55.125Z,39.51
2016-07-19T11:40:55.188Z,39.44
2016-07-19T11:41:55.053Z,39.51
2016-07-19T11:42:55.258Z,39.63
2016-07-19T11:43:55.244Z,39.59
2016-07-19T11:44:55.968Z,39.78
2016-07-19T11:45:55.321Z,39.94
2016-07-19T11:46:55.369Z,40.08
2016-07-19T11:47:54.992Z,40.27
2016-07-19T11:48:55.071Z,40.3
2016-07-19T11:49:55.686Z,40.4
2016-07-19T11:50:55.167Z,40.49
2016-07-19T11:51:55.007Z,40.54
2016-07-19T11:52:55.015Z,40.49
2016-07-19T11:53:55.758Z,40.43
2016-07-19T11:54:55.024Z,40.28
2016-07-19T11:55:55.259Z,40.04
2016-07-19T11:56:55.473Z,40.05
2016-07-19T11:57:55.064Z,39.97
2016-07-19T11:58:56.500Z,40.04
2016-07-19T11:59:55.705Z,40.08
2016-07-19T12:00:55.916Z,40.02
2016-07-19T12:01:55.525Z,39.87
2016-07-19T12:02:55.712Z,39.6
2016-07-19T12:03:55.060Z,39.48
2016-07-19T12:04:55.427Z,39.33
2016-07-19T12:05:56.051Z,39.26
2016-07-19T12:06:55.305Z,39.48
2016-07-19T12:07:55.390Z,39.71
2016-07-19T12:08:55.297Z,39.6
2016-07-19T12:09:55.468Z,39.52
2016-07-19T12:10:55.479Z,39.46
2016-07-19T12:11:55.424Z,39.22
2016-07-19T12:12:55.155Z,39.04
2016-07-19T12:13:55.816Z,39.03
2016-07-19T12:14:56.566Z,38.86
2016-07-19T12:15:55.766Z,38.83
2016-07-19T12:16:55.787Z,39.04
2016-07-19T12:17:56.040Z,38.99
2016-07-19T12:18:56.319Z,39.21
2016-07-19T12:19:55.889Z,39.4
2016-07-19T12:20:55.390Z,39.55
2016-07-19T12:21:55.608Z,39.56
2016-07-19T12:22:56.449Z,39.58
2016-07-19T12:23:56.239Z,39.44
2016-07-19T12:24:55.205Z,39.51
2016-07-19T12:25:56.137Z,39.65
2016-07-19T12:26:55.260Z,39.75
2016-07-19T12:27:55.380Z,40.05
2016-07-19T12:28:55.420Z,40.21
2016-07-19T12:29:55.155Z,40.34
2016-07-19T12:30:55.166Z,40.44
2016-07-19T12:31:56.281Z,40.62
2016-07-19T12:32:55.545Z,40.81
2016-07-19T12:33:55.177Z,40.88
2016-07-19T12:34:56.005Z,40.88
2016-07-19T12:35:55.618Z,40.9
2016-07-19T12:36:55.191Z,40.65
2016-07-19T12:37:55.263Z,40.66
2016-07-19T12:38:56.451Z,40.58
2016-07-19T12:39:55.370Z,40.68
2016-07-19T12:40:55.969Z,40.65
2016-07-19T12:41:55.748Z,40.72
2016-07-19T12:42:56.683Z,40.72
2016-07-19T12:43:55.234Z,40.9
2016-07-19T12:44:55.612Z,40.95
2016-07-19T12:45:56.096Z,41.04
2016-07-19T12:46:55.530Z,41
2016-07-19T12:47:55.796Z,41.07
2016-07-19T12:48:55.908Z,41.21
2016-07-19T12:49:55.371Z,41.29
2016-07-19T12:50:55.360Z,41.19
2016-07-19T12:51:56.910Z,41.15
2016-07-19T12:52:56.039Z,41.06
2016-07-19T12:53:55.682Z,40.85
2016-07-19T12:54:55.587Z,40.95